Time;durP1;ratioP1;P1;durP2;ratioP2;P2;SDS_P1;SDS_P2;PMS_P1;PMS_P2;Temp;Humidity;BMP_temperature;BMP_pressure;BME280_temperature;BME280_humidity;BME280_pressure;Samples;Min_cycle;Max_cycle;Signal;HPM_P1;HPM_P2
2021/04/13 04:15:07;;;;;;;0.52;0.50;;;1.80;99.90;;;;;;5050587;28;20068;-68
2021/04/13 04:17:36;;;;;;;0.80;0.60;;;1.80;99.90;;;;;;5049100;28;20021;-67
2021/04/13 04:20:11;;;;;;;1.13;0.80;;;1.80;99.90;;;;;;5031397;28;20033;-68
2021/04/13 04:22:52;;;;;;;0.95;0.73;;;1.70;99.90;;;;;;5044266;28;20040;-69
2021/04/13 04:25:36;;;;;;;0.40;0.40;;;1.70;99.90;;;;;;5031829;28;20032;-67
2021/04/13 04:28:11;;;;;;;1.65;0.90;;;1.70;99.90;;;;;;5040281;28;20024;-67
2021/04/13 04:30:36;;;;;;;0.63;0.63;;;1.60;99.90;;;;;;5040379;28;20048;-68
2021/04/13 04:33:04;;;;;;;2.30;0.80;;;1.70;99.90;;;;;;5039748;28;20021;-70
2021/04/13 04:35:44;;;;;;;0.55;0.55;;;1.60;99.90;;;;;;5041663;28;20381;-66
2021/04/13 04:38:27;;;;;;;0.40;0.40;;;1.60;99.90;;;;;;5033482;28;20116;-68
2021/04/13 04:40:56;;;;;;;1.10;0.60;;;3.80;99.90;;;;;;5031283;28;20025;-70
2021/04/13 04:43:57;;;;;;;0.95;0.80;;;4.20;99.90;;;;;;5033805;28;20025;-67
2021/04/13 04:46:38;;;;;;;;;;;3.60;99.90;;;;;;5052031;28;20036;-68
2021/04/13 04:49:10;;;;;;;0.90;0.70;;;3.00;99.90;;;;;;5038583;28;19905;-69
2021/04/13 04:51:35;;;;;;;0.88;0.70;;;2.70;99.90;;;;;;5037471;28;20103;-69
2021/04/13 04:54:01;;;;;;;0.70;0.70;;;2.50;99.90;;;;;;5044002;28;20512;-69
2021/04/13 04:56:30;;;;;;;0.70;0.65;;;2.30;99.90;;;;;;5047215;28;20385;-69
2021/04/13 04:58:56;;;;;;;0.60;0.60;;;2.30;99.90;;;;;;5041498;28;20417;-69
2021/04/13 05:01:21;;;;;;;0.50;0.50;;;2.20;99.90;;;;;;5042699;28;20029;-69
2021/04/13 05:03:47;;;;;;;0.50;0.50;;;2.10;99.90;;;;;;5042774;28;20465;-69
2021/04/13 05:06:13;;;;;;;2.15;0.80;;;2.10;99.90;;;;;;5047863;28;20029;-69
2021/04/13 05:08:39;;;;;;;0.70;0.70;;;2.10;99.90;;;;;;5036240;28;20036;-69
2021/04/13 05:11:05;;;;;;;1.40;0.70;;;2.10;99.90;;;;;;5032673;28;20033;-68
2021/04/13 05:13:31;;;;;;;0.70;0.60;;;2.00;99.90;;;;;;5034620;28;20463;-69
2021/04/13 05:15:58;;;;;;;1.10;0.70;;;1.90;99.90;;;;;;5033827;28;20129;-69
2021/04/13 05:18:25;;;;;;;0.93;0.60;;;1.90;99.90;;;;;;5032118;28;20025;-69
2021/04/13 05:20:51;;;;;;;0.95;0.68;;;1.90;99.90;;;;;;5033300;28;20024;-69
2021/04/13 05:23:17;;;;;;;2.05;0.80;;;1.90;99.90;;;;;;5035415;28;20033;-69
2021/04/13 05:25:43;;;;;;;1.85;0.82;;;1.90;99.90;;;;;;5032231;28;20090;-71
2021/04/13 05:28:10;;;;;;;1.92;0.70;;;1.90;99.90;;;;;;5031301;28;20492;-69
2021/04/13 05:30:35;;;;;;;0.70;0.60;;;1.90;99.90;;;;;;5051154;28;20377;-69
2021/04/13 05:33:02;;;;;;;1.80;0.70;;;1.90;99.90;;;;;;5050787;28;20032;-68
2021/04/13 05:35:28;;;;;;;0.88;0.80;;;1.90;99.90;;;;;;5048937;28;20440;-69
2021/04/13 05:38:06;;;;;;;1.35;0.88;;;2.00;99.90;;;;;;5040697;28;20018;-69
2021/04/13 05:40:34;;;;;;;1.10;0.60;;;2.00;99.90;;;;;;5045919;28;20041;-69
2021/04/13 05:43:01;;;;;;;2.05;0.60;;;2.10;99.90;;;;;;5036510;28;20017;-69
2021/04/13 05:45:30;;;;;;;1.77;0.77;;;2.00;99.90;;;;;;5036697;28;20152;-65
2021/04/13 05:47:58;;;;;;;0.63;0.60;;;2.10;99.90;;;;;;5034466;28;20021;-69
2021/04/13 05:50:33;;;;;;;0.70;0.60;;;3.20;99.90;;;;;;5052556;28;20040;-69
2021/04/13 05:52:58;;;;;;;1.45;0.80;;;3.40;99.90;;;;;;5034420;28;20033;-68
2021/04/13 05:55:25;;;;;;;1.13;0.70;;;3.80;99.90;;;;;;5052586;28;20029;-69
2021/04/13 05:57:54;;;;;;;0.70;0.70;;;3.50;99.90;;;;;;5034135;28;20472;-70
2021/04/13 06:00:24;;;;;;;1.10;0.60;;;3.00;99.90;;;;;;5034239;28;20040;-70
2021/04/13 06:02:50;;;;;;;0.77;0.60;;;2.70;99.90;;;;;;5033956;28;20068;-69
2021/04/13 06:05:20;;;;;;;2.08;0.77;;;2.50;99.90;;;;;;5034189;28;20108;-71
2021/04/13 06:07:46;;;;;;;0.80;0.80;;;2.70;99.90;;;;;;5037947;28;20021;-71
2021/04/13 06:10:12;;;;;;;1.77;0.80;;;2.60;99.90;;;;;;5051422;28;20033;-69
2021/04/13 06:12:38;;;;;;;1.95;0.77;;;2.40;99.90;;;;;;5050760;28;20460;-69
2021/04/13 06:15:05;;;;;;;1.73;0.60;;;2.30;99.90;;;;;;5048363;28;20125;-69
2021/04/13 06:17:31;;;;;;;1.60;0.60;;;2.20;99.90;;;;;;5035937;28;20091;-70
2021/04/13 06:19:57;;;;;;;1.50;0.68;;;2.10;99.90;;;;;;5033811;28;20033;-70
2021/04/13 06:22:23;;;;;;;0.80;0.75;;;2.10;99.90;;;;;;5034041;28;20028;-70
2021/04/13 06:24:48;;;;;;;1.60;0.65;;;2.10;99.90;;;;;;5045527;28;20079;-70
2021/04/13 06:27:14;;;;;;;0.50;0.50;;;2.10;99.90;;;;;;5038692;28;20396;-69
2021/04/13 06:29:40;;;;;;;0.70;0.63;;;2.00;99.90;;;;;;5049019;28;20416;-69
2021/04/13 06:32:08;;;;;;;0.80;0.80;;;2.00;99.90;;;;;;5034565;28;20448;-68
2021/04/13 06:34:35;;;;;;;1.13;0.60;;;2.00;99.90;;;;;;5053599;28;20055;-68
2021/04/13 06:37:03;;;;;;;0.80;0.60;;;2.00;99.90;;;;;;5053469;28;20021;-68
2021/04/13 06:39:29;;;;;;;1.70;0.65;;;2.00;99.90;;;;;;5053335;28;20052;-71
2021/04/13 06:42:23;;;;;;;0.65;0.65;;;2.00;99.90;;;;;;5053054;28;20079;-71
2021/04/13 06:44:48;;;;;;;2.30;0.82;;;1.90;99.90;;;;;;5040607;28;20431;-69
2021/04/13 06:47:36;;;;;;;1.80;0.80;;;2.00;99.90;;;;;;5051611;28;20021;-67
2021/04/13 06:50:22;;;;;;;1.27;0.90;;;2.00;99.90;;;;;;5051710;28;20060;-67
2021/04/13 06:52:54;;;;;;;1.15;0.70;;;2.10;99.90;;;;;;5050361;28;20021;-68
2021/04/13 06:55:22;;;;;;;0.73;0.73;;;2.20;99.90;;;;;;5049776;28;20438;-68
2021/04/13 06:58:11;;;;;;;1.77;0.90;;;2.40;99.90;;;;;;5052876;28;20028;-68
2021/04/13 07:00:48;;;;;;;1.92;0.85;;;2.60;99.90;;;;;;5044823;28;20080;-69
2021/04/13 07:03:30;;;;;;;1.75;0.77;;;2.80;99.90;;;;;;5041009;28;20055;-68
2021/04/13 07:06:12;;;;;;;1.23;0.68;;;2.80;99.90;;;;;;5052699;28;20087;-68
2021/04/13 07:08:45;;;;;;;3.42;0.80;;;3.10;99.90;;;;;;5053209;28;20429;-68
2021/04/13 07:11:35;;;;;;;0.90;0.70;;;3.40;99.90;;;;;;5052907;28;20021;-68
2021/04/13 07:14:03;;;;;;;1.90;0.65;;;3.40;99.90;;;;;;5052336;28;20110;-68
2021/04/13 07:16:41;;;;;;;2.17;0.77;;;3.20;99.90;;;;;;5051644;28;20048;-68
2021/04/13 07:19:19;;;;;;;0.90;0.75;;;3.30;99.90;;;;;;5051399;28;20037;-68
2021/04/13 07:22:00;;;;;;;1.48;0.80;;;3.20;99.90;;;;;;5052220;28;20054;-68
2021/04/13 07:24:41;;;;;;;1.40;0.88;;;3.20;99.90;;;;;;5052684;28;20017;-68
2021/04/13 07:27:22;;;;;;;0.88;0.60;;;3.00;99.90;;;;;;5050798;28;20025;-68
2021/04/13 07:29:59;;;;;;;;;;;2.80;99.90;;;;;;5053348;28;20408;-68
2021/04/13 07:32:25;;;;;;;0.80;0.70;;;2.90;99.90;;;;;;5052557;28;20395;-68
2021/04/13 07:34:58;;;;;;;1.00;0.70;;;3.00;99.90;;;;;;5052055;28;20520;-68
2021/04/13 07:37:40;;;;;;;1.13;0.77;;;3.00;99.90;;;;;;5052192;28;20032;-68
2021/04/13 07:40:14;;;;;;;1.00;0.75;;;2.80;99.90;;;;;;5051814;28;20024;-67
2021/04/13 07:42:46;;;;;;;1.27;0.80;;;2.80;99.90;;;;;;5052448;28;20029;-69
2021/04/13 07:45:30;;;;;;;1.05;0.73;;;2.90;99.90;;;;;;5051899;28;20496;-68
2021/04/13 07:48:14;;;;;;;1.30;0.80;;;3.10;99.90;;;;;;5051441;28;20021;-68
2021/04/13 07:50:42;;;;;;;1.50;0.60;;;3.30;99.90;;;;;;5048967;28;20048;-68
2021/04/13 07:53:33;;;;;;;0.65;0.65;;;3.40;99.90;;;;;;5051369;28;20029;-68
2021/04/13 07:56:18;;;;;;;2.17;0.90;;;3.20;99.90;;;;;;5047638;28;20395;-68
2021/04/13 07:58:49;;;;;;;1.40;0.60;;;3.70;99.90;;;;;;5050609;28;20029;-68
2021/04/13 08:01:17;;;;;;;1.55;0.80;;;3.80;99.90;;;;;;5051483;28;20021;-68
2021/04/13 08:03:43;;;;;;;2.10;0.80;;;3.40;99.90;;;;;;5051578;28;20025;-68
2021/04/13 08:06:26;;;;;;;1.95;0.80;;;3.30;99.90;;;;;;5052184;28;20361;-68
2021/04/13 08:09:27;;;;;;;1.10;0.80;;;3.20;99.90;;;;;;5051919;28;20023;-68
2021/04/13 08:12:16;;;;;;;1.75;1.17;;;3.40;99.90;;;;;;5050364;28;20032;-68
2021/04/13 08:14:48;;;;;;;1.27;0.88;;;3.30;99.90;;;;;;5051132;28;20055;-68
2021/04/13 08:17:26;;;;;;;2.13;0.93;;;3.50;99.90;;;;;;5051356;28;20025;-69
2021/04/13 08:20:07;;;;;;;1.38;0.90;;;3.50;99.90;;;;;;5049397;28;20029;-69
2021/04/13 08:22:56;;;;;;;1.83;1.00;;;3.40;99.90;;;;;;5051661;28;20075;-67
2021/04/13 08:25:42;;;;;;;1.20;0.80;;;3.50;99.90;;;;;;5051687;28;20029;-68
2021/04/13 08:28:43;;;;;;;1.10;1.00;;;3.50;99.90;;;;;;5050904;28;20036;-68
2021/04/13 08:34:43;;;;;;;1.67;0.80;;;3.00;99.90;;;;;;5050948;28;20051;-69
2021/04/13 08:37:39;;;;;;;1.25;0.90;;;2.70;99.90;;;;;;5051480;28;20033;-69
2021/04/13 08:40:23;;;;;;;18.30;4.40;;;2.70;99.90;;;;;;5051697;28;20029;-69
2021/04/13 08:43:00;;;;;;;1.98;1.00;;;3.00;99.90;;;;;;5051541;28;20377;-69
2021/04/13 08:45:45;;;;;;;1.30;0.90;;;3.30;99.90;;;;;;5051904;28;20036;-69
2021/04/13 08:48:24;;;;;;;3.20;0.90;;;3.00;99.90;;;;;;5051123;28;20531;-70
2021/04/13 08:51:11;;;;;;;1.08;0.80;;;2.90;99.90;;;;;;5051520;28;20037;-69
2021/04/13 08:53:47;;;;;;;0.60;0.60;;;2.80;99.90;;;;;;5051612;28;20071;-69
2021/04/13 08:56:23;;;;;;;3.67;1.52;;;2.80;99.90;;;;;;5051755;28;20053;-69
2021/04/13 08:58:53;;;;;;;2.20;0.70;;;2.70;99.90;;;;;;5051138;28;20017;-69
2021/04/13 09:01:51;;;;;;;0.80;0.80;;;3.00;99.90;;;;;;5050961;28;20017;-69
2021/04/13 09:04:30;;;;;;;2.45;0.90;;;2.90;99.90;;;;;;5054019;28;20040;-69
2021/04/13 09:07:26;;;;;;;0.70;0.65;;;3.00;99.90;;;;;;5049180;28;20025;-69
2021/04/13 09:10:16;;;;;;;0.90;0.60;;;2.90;99.90;;;;;;5050404;28;20017;-69
2021/04/13 09:12:50;;;;;;;2.17;0.93;;;2.80;99.90;;;;;;5052775;28;20094;-69
2021/04/13 09:15:27;;;;;;;1.58;0.98;;;2.60;99.90;;;;;;5052637;28;20128;-69
2021/04/13 09:18:11;;;;;;;1.02;0.88;;;2.60;99.90;;;;;;5052732;28;20061;-69
2021/04/13 09:20:44;;;;;;;2.63;0.77;;;2.70;99.90;;;;;;5057130;28;20021;-69
2021/04/13 09:23:41;;;;;;;0.80;0.80;;;2.70;99.90;;;;;;5054948;28;20040;-69
2021/04/13 09:26:22;;;;;;;0.98;0.98;;;2.60;99.90;;;;;;5054639;28;20122;-69
2021/04/13 09:28:57;;;;;;;0.80;0.80;;;2.70;99.90;;;;;;5055213;28;20025;-69
2021/04/13 09:31:45;;;;;;;2.53;0.90;;;2.70;99.90;;;;;;5055193;28;20013;-69
2021/04/13 09:34:34;;;;;;;1.05;0.80;;;2.70;99.90;;;;;;5054483;28;20048;-71
2021/04/13 09:37:25;;;;;;;2.60;0.98;;;2.80;99.90;;;;;;5053624;28;20033;-70
2021/04/13 09:39:56;;;;;;;1.85;0.95;;;2.80;99.90;;;;;;5054687;28;20064;-70
2021/04/13 09:42:38;;;;;;;1.27;0.85;;;2.80;99.90;;;;;;5051812;28;20045;-70
2021/04/13 09:45:18;;;;;;;1.92;0.90;;;2.80;99.90;;;;;;5050443;28;20039;-70
2021/04/13 09:48:13;;;;;;;1.00;0.90;;;2.70;99.90;;;;;;5051982;28;20047;-70
2021/04/13 09:50:39;;;;;;;2.38;0.88;;;2.70;99.90;;;;;;5042458;28;20034;-70
2021/04/13 09:54:00;;;;;;;1.85;1.00;;;2.50;99.90;;;;;;5048908;28;20095;-71
2021/04/13 09:56:53;;;;;;;1.13;0.95;;;2.50;99.90;;;;;;5053065;28;20032;-70
2021/04/13 09:59:43;;;;;;;1.80;1.10;;;2.50;99.90;;;;;;5053033;28;20025;-70
2021/04/13 10:02:40;;;;;;;1.48;0.80;;;2.60;99.90;;;;;;5053632;28;20029;-71
2021/04/13 10:05:17;;;;;;;2.00;1.00;;;2.70;99.90;;;;;;5054033;28;20036;-71
2021/04/13 10:07:58;;;;;;;3.80;1.38;;;2.70;99.90;;;;;;5054043;28;20025;-71
2021/04/13 10:10:55;;;;;;;1.58;0.90;;;2.70;99.90;;;;;;5054188;28;20021;-70
2021/04/13 10:13:51;;;;;;;3.47;0.98;;;2.60;99.90;;;;;;5053504;28;20045;-70
2021/04/13 10:16:20;;;;;;;1.73;1.05;;;2.60;99.90;;;;;;5053706;28;20136;-70
2021/04/13 10:18:45;;;;;;;2.10;1.10;;;2.60;99.90;;;;;;5053931;28;20029;-71
2021/04/13 10:21:34;;;;;;;1.58;0.80;;;2.70;99.90;;;;;;5053605;28;20040;-71
2021/04/13 10:24:02;;;;;;;1.65;1.00;;;2.80;99.90;;;;;;5053722;28;20575;-71
2021/04/13 10:27:12;;;;;;;3.75;1.17;;;2.80;99.90;;;;;;5054074;28;20447;-71
2021/04/13 10:30:13;;;;;;;1.98;1.00;;;2.90;99.90;;;;;;5052027;28;20111;-71
2021/04/13 10:33:00;;;;;;;1.23;0.80;;;2.90;99.90;;;;;;5033820;28;20133;-69
2021/04/13 10:36:03;;;;;;;1.45;0.80;;;2.90;99.90;;;;;;5033779;28;20029;-69
2021/04/13 10:38:50;;;;;;;1.05;0.90;;;2.90;99.90;;;;;;5033618;28;20029;-70
2021/04/13 10:41:31;;;;;;;2.83;0.80;;;3.00;99.90;;;;;;5033876;28;20034;-69
2021/04/13 10:43:56;;;;;;;;;;;3.00;99.90;;;;;;5034044;28;20022;-69
2021/04/13 10:46:28;;;;;;;1.10;0.77;;;3.00;99.90;;;;;;5050405;28;19984;-69
2021/04/13 10:49:03;;;;;;;3.22;0.98;;;3.00;99.90;;;;;;5052175;28;20017;-69
2021/04/13 10:52:04;;;;;;;3.08;0.93;;;2.90;99.90;;;;;;5052486;28;20028;-70
2021/04/13 10:54:35;;;;;;;1.58;1.00;;;2.90;99.90;;;;;;5049458;28;20128;-69
2021/04/13 10:57:39;;;;;;;2.65;0.98;;;2.90;99.90;;;;;;5053029;28;20028;-69
2021/04/13 11:00:40;;;;;;;2.50;1.05;;;2.90;99.90;;;;;;5049210;28;20033;-69
2021/04/13 11:03:43;;;;;;;1.83;0.85;;;2.90;99.90;;;;;;5053250;28;20032;-69
2021/04/13 11:06:20;;;;;;;1.90;1.00;;;2.90;99.90;;;;;;5053044;28;20029;-69
2021/04/13 11:09:01;;;;;;;1.20;0.77;;;2.80;99.90;;;;;;5052920;28;20071;-69
2021/04/13 11:11:46;;;;;;;3.20;1.10;;;2.90;99.90;;;;;;5053166;28;20021;-69
2021/04/13 11:14:29;;;;;;;1.50;0.90;;;3.00;99.90;;;;;;5052569;28;20492;-70
2021/04/13 11:17:33;;;;;;;2.10;0.90;;;2.90;99.90;;;;;;5052545;28;20040;-69
2021/04/13 11:20:24;;;;;;;1.08;0.80;;;3.00;99.90;;;;;;5052693;28;20032;-70
2021/04/13 11:22:50;;;;;;;1.90;0.90;;;3.10;99.90;;;;;;5053120;28;20028;-68
2021/04/13 11:25:52;;;;;;;4.53;1.38;;;3.20;99.90;;;;;;5053030;28;20100;-67
2021/04/13 11:28:42;;;;;;;0.93;0.70;;;3.50;99.90;;;;;;5052109;28;20025;-69
2021/04/13 11:31:26;;;;;;;1.17;0.80;;;4.10;99.90;;;;;;5051551;28;20354;-69
2021/04/13 11:34:29;;;;;;;2.00;0.80;;;3.80;99.90;;;;;;5052510;28;20484;-69
2021/04/13 11:37:23;;;;;;;1.20;0.82;;;3.50;99.90;;;;;;5052844;28;20025;-69
2021/04/13 11:40:10;;;;;;;1.88;0.93;;;3.40;99.90;;;;;;5052746;28;20021;-69
2021/04/13 11:42:40;;;;;;;0.95;0.85;;;3.40;99.90;;;;;;5052695;28;20053;-69
2021/04/13 11:45:24;;;;;;;1.50;0.73;;;3.40;99.90;;;;;;5052660;28;20082;-69
2021/04/13 11:48:00;;;;;;;6.30;0.90;;;3.40;99.90;;;;;;5052685;28;20100;-69
2021/04/13 11:51:02;;;;;;;1.45;0.75;;;3.20;99.90;;;;;;5052696;28;20017;-69
2021/04/13 11:53:44;;;;;;;1.70;0.65;;;3.10;99.90;;;;;;5052348;28;20036;-69
2021/04/13 11:56:39;;;;;;;1.13;0.70;;;2.90;99.90;;;;;;5052256;28;20052;-69
2021/04/13 11:59:16;;;;;;;0.70;0.70;;;3.30;99.90;;;;;;5051528;28;20090;-69
2021/04/13 12:02:15;;;;;;;1.50;0.70;;;3.40;99.90;;;;;;5052368;28;20021;-69
2021/04/13 12:04:45;;;;;;;0.68;0.60;;;3.30;99.90;;;;;;5055375;28;20016;-70
2021/04/13 12:07:11;;;;;;;1.57;0.80;;;3.30;99.90;;;;;;5055643;28;20059;-69
2021/04/13 12:09:59;;;;;;;1.08;0.68;;;3.30;99.90;;;;;;5052362;28;20259;-69
2021/04/13 12:12:31;;;;;;;1.30;0.90;;;3.20;99.90;;;;;;5037390;28;20040;-69
2021/04/13 12:15:20;;;;;;;1.63;0.55;;;3.10;99.90;;;;;;5049653;28;20098;-69
2021/04/13 12:17:51;;;;;;;0.52;0.52;;;3.10;99.90;;;;;;5062297;28;20423;-69
2021/04/13 12:20:35;;;;;;;0.95;0.80;;;3.00;99.90;;;;;;5058739;28;20029;-69
2021/04/13 12:23:09;;;;;;;1.80;0.60;;;3.00;99.90;;;;;;5053721;28;20393;-69
2021/04/13 12:26:05;;;;;;;0.50;0.50;;;3.00;99.90;;;;;;5052282;28;20152;-69
2021/04/13 12:28:32;;;;;;;0.95;0.70;;;3.00;99.90;;;;;;5052333;28;20051;-69
2021/04/13 12:31:22;;;;;;;2.63;0.90;;;3.00;99.90;;;;;;5051888;28;20029;-69
2021/04/13 12:33:52;;;;;;;0.93;0.77;;;3.00;99.90;;;;;;5052144;28;20059;-69
2021/04/13 12:36:39;;;;;;;2.97;0.90;;;3.10;99.90;;;;;;5051674;28;20452;-69
2021/04/13 12:39:05;;;;;;;1.05;0.70;;;3.20;99.90;;;;;;5051445;28;20033;-69
2021/04/13 12:41:50;;;;;;;1.55;1.00;;;3.10;99.90;;;;;;5051756;28;20117;-68
2021/04/13 12:44:17;;;;;;;3.35;0.88;;;3.50;99.90;;;;;;5060552;28;20024;-68
2021/04/13 12:46:47;;;;;;;0.90;0.90;;;3.80;99.90;;;;;;5066587;28;20020;-68
2021/04/13 12:49:13;;;;;;;1.95;0.80;;;4.10;99.90;;;;;;5064064;28;20024;-68
2021/04/13 12:51:57;;;;;;;2.00;0.82;;;4.40;99.90;;;;;;5058107;28;20074;-68
2021/04/13 12:54:29;;;;;;;1.80;0.90;;;4.80;99.90;;;;;;5054931;28;20029;-68
2021/04/13 12:57:07;;;;;;;3.45;1.00;;;4.70;99.90;;;;;;5055512;28;20076;-68
2021/04/13 12:59:35;;;;;;;2.20;0.80;;;4.60;99.90;;;;;;5056153;28;20017;-68
2021/04/13 13:02:01;;;;;;;2.22;1.02;;;4.50;99.90;;;;;;5055829;28;20388;-68
2021/04/13 13:04:52;;;;;;;2.35;1.13;;;4.60;99.90;;;;;;5055458;28;20033;-68
2021/04/13 13:07:27;;;;;;;1.00;0.90;;;4.60;99.90;;;;;;5056147;28;20045;-68
2021/04/13 13:09:54;;;;;;;0.82;0.80;;;4.50;99.90;;;;;;5055628;28;20021;-68
2021/04/13 13:12:25;;;;;;;2.42;0.93;;;4.70;99.90;;;;;;5055237;28;20253;-69
2021/04/13 13:15:00;;;;;;;1.63;1.02;;;4.70;99.90;;;;;;5058040;28;20048;-69
2021/04/13 13:17:46;;;;;;;1.63;1.10;;;4.80;99.90;;;;;;5061256;28;20066;-68
2021/04/13 13:20:15;;;;;;;4.93;1.40;;;4.80;99.90;;;;;;5062655;28;20033;-68
2021/04/13 13:22:49;;;;;;;1.35;1.10;;;5.00;99.90;;;;;;5063796;28;20057;-69
2021/04/13 13:25:22;;;;;;;1.05;0.90;;;5.20;99.90;;;;;;5064596;28;20025;-69
2021/04/13 13:27:48;;;;;;;2.33;1.33;;;5.30;99.90;;;;;;5066878;28;20120;-69
2021/04/13 13:30:17;;;;;;;2.03;0.90;;;5.50;99.90;;;;;;5063722;28;20104;-69
2021/04/13 13:32:43;;;;;;;2.95;1.02;;;5.60;99.90;;;;;;5064589;28;20046;-69
2021/04/13 13:35:13;;;;;;;1.25;0.80;;;5.60;99.90;;;;;;5065129;28;20120;-69
2021/04/13 13:37:43;;;;;;;1.20;0.93;;;5.70;99.90;;;;;;5061672;28;20075;-69
2021/04/13 13:40:34;;;;;;;3.50;0.90;;;5.70;99.90;;;;;;5063613;28;20028;-71
2021/04/13 13:43:08;;;;;;;1.45;0.80;;;5.80;99.90;;;;;;5061290;28;20091;-69
2021/04/13 13:45:44;;;;;;;3.17;0.90;;;5.80;99.90;;;;;;5061530;28;20025;-69
2021/04/13 13:48:25;;;;;;;0.77;0.77;;;5.70;99.90;;;;;;5063048;28;20613;-68
2021/04/13 13:51:11;;;;;;;2.53;1.00;;;5.80;99.90;;;;;;5063953;28;20122;-69
2021/04/13 13:53:52;;;;;;;1.45;0.80;;;5.90;99.90;;;;;;5060817;28;20091;-68
2021/04/13 13:56:35;;;;;;;1.10;0.90;;;5.80;99.90;;;;;;5060294;28;20028;-69
2021/04/13 13:59:28;;;;;;;1.00;0.90;;;5.80;99.90;;;;;;5061725;28;20025;-68
2021/04/13 14:01:59;;;;;;;3.03;0.75;;;5.90;99.90;;;;;;5060723;28;20513;-69
2021/04/13 14:04:33;;;;;;;1.10;0.73;;;5.80;99.90;;;;;;5054795;28;20107;-69
2021/04/13 14:06:59;;;;;;;3.20;1.10;;;5.80;99.90;;;;;;5054572;28;20059;-70
2021/04/13 14:09:26;;;;;;;1.20;0.80;;;5.70;99.90;;;;;;5054073;28;20029;-70
2021/04/13 14:11:52;;;;;;;3.35;0.90;;;5.60;99.90;;;;;;5054338;28;20037;-66
2021/04/13 14:14:23;;;;;;;1.48;0.80;;;5.50;99.90;;;;;;5054098;28;20044;-66
2021/04/13 14:16:53;;;;;;;3.88;1.10;;;7.50;99.90;;;;;;5054414;28;20047;-69
2021/04/13 14:19:30;;;;;;;7.45;0.80;;;8.80;99.90;;;;;;5054096;28;20025;-69
2021/04/13 14:22:19;;;;;;;1.25;0.50;;;8.10;99.90;;;;;;5034355;28;20059;-69
2021/04/13 14:25:02;;;;;;;2.67;0.65;;;7.30;99.90;;;;;;5034207;28;20104;-69
2021/04/13 14:27:29;;;;;;;1.02;0.43;;;6.80;99.90;;;;;;5053743;28;20036;-70
2021/04/13 14:29:55;;;;;;;2.28;0.50;;;6.40;99.90;;;;;;5054109;28;20358;-69
2021/04/13 14:32:30;;;;;;;0.90;0.40;;;6.20;99.90;;;;;;5053861;28;20032;-69
2021/04/13 14:34:56;;;;;;;1.52;0.50;;;6.10;99.90;;;;;;5053846;28;20036;-69
2021/04/13 14:37:29;;;;;;;4.13;0.60;;;6.00;99.90;;;;;;5054123;28;20025;-69
2021/04/13 14:40:20;;;;;;;0.95;0.50;;;5.90;99.90;;;;;;5053896;28;20580;-69
2021/04/13 14:42:46;;;;;;;;;;;5.90;99.90;;;;;;5053980;28;20037;-69
2021/04/13 14:45:16;;;;;;;1.75;0.68;;;5.90;99.90;;;;;;5053568;28;19952;-69
2021/04/13 14:47:42;;;;;;;1.48;0.50;;;5.80;99.90;;;;;;5053913;28;20384;-70
2021/04/13 14:50:10;;;;;;;0.45;0.40;;;6.20;99.90;;;;;;5053683;28;20085;-73
2021/04/13 14:52:38;;;;;;;1.00;0.65;;;6.40;99.90;;;;;;5053404;28;20017;-70
2021/04/13 14:55:05;;;;;;;0.60;0.50;;;6.20;99.90;;;;;;5052079;28;20435;-68
2021/04/13 14:57:30;;;;;;;0.82;0.55;;;6.00;99.90;;;;;;5053607;28;20061;-68
2021/04/13 14:59:57;;;;;;;1.95;0.60;;;5.80;99.90;;;;;;5053650;28;20053;-69
2021/04/13 15:02:23;;;;;;;0.50;0.40;;;6.90;99.90;;;;;;5053274;28;20036;-68
2021/04/13 15:04:49;;;;;;;1.98;0.60;;;6.90;99.90;;;;;;5053612;28;20027;-70
2021/04/13 15:07:15;;;;;;;1.08;0.50;;;6.60;99.90;;;;;;5052378;28;20103;-67
2021/04/13 15:09:42;;;;;;;0.40;0.40;;;6.30;99.90;;;;;;5053214;28;20029;-71
2021/04/13 15:12:12;;;;;;;0.30;0.30;;;6.10;99.90;;;;;;5053146;28;20021;-73
2021/04/13 15:14:38;;;;;;;2.60;0.50;;;6.10;99.90;;;;;;5052911;28;20138;-79
2021/04/13 15:17:04;;;;;;;1.30;0.80;;;5.90;99.90;;;;;;5053141;28;20457;-73
2021/04/13 15:19:30;;;;;;;0.40;0.40;;;5.90;99.90;;;;;;5052696;28;20115;-72
2021/04/13 15:21:56;;;;;;;0.77;0.50;;;5.90;99.90;;;;;;5053007;28;20116;-72
2021/04/13 15:24:22;;;;;;;0.57;0.50;;;5.80;99.90;;;;;;5053125;28;20029;-72
2021/04/13 15:26:54;;;;;;;0.47;0.47;;;5.80;99.90;;;;;;5052350;28;20024;-71
2021/04/13 15:29:21;;;;;;;0.50;0.40;;;5.70;99.90;;;;;;5053153;28;20029;-70
2021/04/13 15:31:50;;;;;;;0.70;0.50;;;5.60;99.90;;;;;;5052970;28;20021;-70
2021/04/13 15:34:27;;;;;;;0.50;0.50;;;5.60;99.90;;;;;;5055559;28;20064;-73
2021/04/13 15:36:56;;;;;;;5.55;0.93;;;5.60;99.90;;;;;;5052343;28;20017;-73
2021/04/13 15:39:22;;;;;;;4.65;2.78;;;6.50;99.90;;;;;;5032690;28;20041;-70
2021/04/13 15:41:55;;;;;;;1.02;0.70;;;9.90;99.90;;;;;;5032792;28;20028;-71
2021/04/13 15:44:36;;;;;;;0.95;0.50;;;9.80;91.40;;;;;;5046492;28;20032;-71
2021/04/13 15:47:03;;;;;;;2.30;0.40;;;8.40;92.90;;;;;;5051208;28;20023;-70
2021/04/13 15:49:32;;;;;;;1.08;0.40;;;7.40;99.90;;;;;;5051349;28;20064;-70
2021/04/13 15:52:00;;;;;;;0.40;0.40;;;6.80;99.90;;;;;;5052438;28;20392;-71
2021/04/13 15:54:26;;;;;;;0.40;0.40;;;6.40;99.90;;;;;;5052116;28;20021;-70
2021/04/13 15:56:55;;;;;;;1.45;0.70;;;6.10;99.90;;;;;;5052309;28;20045;-69
2021/04/13 15:59:23;;;;;;;0.60;0.60;;;6.80;99.90;;;;;;5052259;28;20050;-71
2021/04/13 16:01:50;;;;;;;0.50;0.50;;;8.50;99.90;;;;;;5052246;28;20040;-70
2021/04/13 16:04:16;;;;;;;0.82;0.50;;;8.40;99.90;;;;;;5052129;28;20029;-71
2021/04/13 16:06:42;;;;;;;0.50;0.40;;;7.70;99.90;;;;;;5052164;28;20032;-71
2021/04/13 16:09:09;;;;;;;0.60;0.60;;;7.10;99.90;;;;;;5051911;28;20116;-71
2021/04/13 16:11:36;;;;;;;0.82;0.77;;;6.80;99.90;;;;;;5052013;28;20039;-71
2021/04/13 16:14:02;;;;;;;1.13;0.60;;;6.40;99.90;;;;;;5052383;28;20064;-70
2021/04/13 16:16:28;;;;;;;0.82;0.50;;;6.10;99.90;;;;;;5051825;28;20477;-71
2021/04/13 16:18:54;;;;;;;1.13;0.60;;;5.90;99.90;;;;;;5051866;28;20061;-73
2021/04/13 16:21:23;;;;;;;0.43;0.43;;;5.60;99.90;;;;;;5051963;28;20055;-73
2021/04/13 16:23:49;;;;;;;0.65;0.63;;;5.30;99.90;;;;;;5052025;28;20025;-73
2021/04/13 16:26:18;;;;;;;1.48;0.70;;;5.20;99.90;;;;;;5052326;28;20111;-69
2021/04/13 16:28:45;;;;;;;0.68;0.60;;;5.80;99.90;;;;;;5051990;28;20052;-73
2021/04/13 16:31:32;;;;;;;0.50;0.50;;;7.20;99.90;;;;;;5051998;28;20048;-73
2021/04/13 16:34:22;;;;;;;0.80;0.50;;;6.80;99.90;;;;;;5051856;28;20029;-72
2021/04/13 16:37:03;;;;;;;0.50;0.50;;;6.20;99.90;;;;;;5048405;28;20101;-72
2021/04/13 16:40:06;;;;;;;1.95;0.60;;;5.80;99.90;;;;;;5041500;28;20162;-74
2021/04/13 16:42:53;;;;;;;0.50;0.50;;;5.40;99.90;;;;;;5041009;28;20037;-72
2021/04/13 16:45:25;;;;;;;3.10;0.57;;;5.20;99.90;;;;;;5050183;28;20033;-73
2021/04/13 16:47:59;;;;;;;0.52;0.50;;;5.10;99.90;;;;;;5037841;28;20028;-73
2021/04/13 16:50:26;;;;;;;0.45;0.45;;;5.10;99.90;;;;;;5051474;28;20029;-73
2021/04/13 16:52:54;;;;;;;0.63;0.60;;;5.10;99.90;;;;;;5051520;28;20029;-73
2021/04/13 16:55:20;;;;;;;0.50;0.50;;;5.00;99.90;;;;;;5051278;28;20135;-73
2021/04/13 16:57:47;;;;;;;0.43;0.43;;;4.90;99.90;;;;;;5051239;28;20050;-73
2021/04/13 17:00:19;;;;;;;0.75;0.57;;;4.90;99.90;;;;;;5051564;28;20103;-72
2021/04/13 17:03:06;;;;;;;0.60;0.60;;;4.80;99.90;;;;;;5051197;28;20056;-71
2021/04/13 17:05:55;;;;;;;2.50;0.70;;;4.70;99.90;;;;;;5042406;28;20025;-72
2021/04/13 17:08:32;;;;;;;0.70;0.70;;;4.70;99.90;;;;;;5052584;28;20060;-72
2021/04/13 17:11:09;;;;;;;1.50;1.02;;;4.70;99.90;;;;;;5040557;28;20049;-72
2021/04/13 17:13:39;;;;;;;1.45;1.35;;;4.70;99.90;;;;;;5049282;28;20082;-72
2021/04/13 17:16:19;;;;;;;1.30;1.20;;;4.60;99.90;;;;;;5051007;28;20492;-72
2021/04/13 17:18:47;;;;;;;;;;;4.60;99.90;;;;;;5051443;28;20021;-72
2021/04/13 17:21:27;;;;;;;0.85;0.73;;;4.50;99.90;;;;;;5046309;28;19909;-71
2021/04/13 17:23:56;;;;;;;0.70;0.70;;;4.40;99.90;;;;;;5036027;28;20015;-72
2021/04/13 17:26:22;;;;;;;0.65;0.65;;;4.30;99.90;;;;;;5050905;28;20095;-71
2021/04/13 17:28:53;;;;;;;0.75;0.70;;;4.20;99.90;;;;;;5050968;28;20013;-72
2021/04/13 17:31:23;;;;;;;2.72;0.80;;;4.20;99.90;;;;;;5053440;28;20029;-72
2021/04/13 17:33:49;;;;;;;0.82;0.70;;;4.10;99.90;;;;;;5038138;28;20082;-72
2021/04/13 17:36:28;;;;;;;1.20;0.55;;;4.00;99.90;;;;;;5054948;28;20029;-72
2021/04/13 17:39:02;;;;;;;1.45;0.90;;;3.90;99.90;;;;;;5051809;28;20579;-71
2021/04/13 17:41:35;;;;;;;0.98;0.90;;;3.80;99.90;;;;;;5044465;28;20108;-72
2021/04/13 17:44:23;;;;;;;1.48;1.13;;;3.70;99.90;;;;;;5046284;28;20033;-70
2021/04/13 17:46:52;;;;;;;2.50;1.70;;;3.70;99.90;;;;;;5054695;28;20068;-73
2021/04/13 17:49:21;;;;;;;1.05;0.80;;;3.90;99.90;;;;;;5054364;28;20017;-73
2021/04/13 17:51:49;;;;;;;2.25;0.90;;;4.00;99.90;;;;;;5054296;28;20036;-73
2021/04/13 17:54:17;;;;;;;6.30;2.22;;;4.10;99.90;;;;;;5040213;28;20481;-72
2021/04/13 17:56:53;;;;;;;2.05;1.33;;;3.90;99.90;;;;;;5054508;28;20020;-72
2021/04/13 17:59:19;;;;;;;1.80;0.93;;;3.80;99.90;;;;;;5054375;28;20074;-71
2021/04/13 18:01:48;;;;;;;0.70;0.70;;;3.70;99.90;;;;;;5054064;28;20021;-72